Pineville, SC (29468)

11:01 AM EDT on September 01, 2014 (GMT -0400)
Santee Cooper Regional | Change Station
CLOSE
Current Station
Airport
Location: Manning,
Elevation: 105 ft
Nearby Weather Stations

Elev 105 ft 33.59 °N, 80.21 °W | Updated 6 minutes ago

Clear
Clear
88 °F
Feels Like 96 °F
N
0
Wind Variable Wind from North

Today
High -- | Low -- °F
--% Chance of Precip.
Yesterday
High -- | Low -- °F
Precip. -- in
6:54 AM 7:45 PM
Waxing Crescent, 41% visible
Pressure 30.13 in
Visibility 7.0 miles
Clouds Clear
Heat Index 96 °F
Dew Point 73 °F
Humidity 62%
Rainfall 0.00 in
Snow Depth Not available.
UV 7 out of 12
Pollen 8.60 out of 12
Ozone Good
PM2.5 Good
Flu Activity Not available.
METAR KMNI 011455Z AUTO 00000KT 7SM CLR 31/23 A3013 RMK AO2

More Conditions Fewer Conditions

Pressure 30.13 in
Visibility 7.0 miles
Clouds Clear
Heat Index 96 °F
Dew Point 73 °F
Humidity 62%
Rainfall 0.00 in
Snow Depth Not available.
UV 7 out of 12
Pollen 8.60 out of 12
Ozone Good
PM2.5 Good
Flu Activity Not available.
METAR KMNI 011455Z AUTO 00000KT 7SM CLR 31/23 A3013 RMK AO2

More Conditions Fewer Conditions

10-Day Weather Forecast

Almanac

Astronomy

Sep. 01, 2014 Rise Set
Actual Time 6:54 AM EDT 7:45 PM EDT
Civil Twilight 6:29 AM EDT 8:10 PM EDT
Nautical Twilight 5:59 AM EDT 8:40 PM EDT
Astronomical Twilight 5:28 AM EDT 9:11 PM EDT
Moon 1:18 PM EDT No Moon Set
Length of Visible Light 13h 41m
Length of Day
12h 51m
Tomorrow will be 1m 59s shorter.
Waxing Crescent, 41% of the Moon is Illuminated
Today
Waxing Crescent
Sep 2
First Quarter
Sep 8
Full
Sep 15
Last Quarter
Sep 24
New

Today's Extremes

State Highs State Lows

Community

WunderPhotos

Upload Photos

1,749,256 photos uploaded!

Nearby

Air Quality

  Air Quality AQ Index Pollutant
Yesterday Good
PM2.5
Yesterday Good
OZONE
Current Good
PM2.5
Current Good
OZONE
Monday Good
OZONE

Snow Depth

Station Depth Elevation
No new snow has been reported.

Earthquake Activity

City Distance Mag. Time & Date
No recent earthquake activity has been reported nearby.
Minimum magnitude displayed is 2.5.

Coastal Water Temperatures

Place Temperature
No Stations Reporting

Nearby Weather Stations